Time;durP1;ratioP1;P1;durP2;ratioP2;P2;SDS_P1;SDS_P2;PMS_P1;PMS_P2;Temp;Humidity;BMP_temperature;BMP_pressure;BME280_temperature;BME280_humidity;BME280_pressure;Samples;Min_cycle;Max_cycle;Signal;HPM_P1;HPM_P2
2022/01/16 00:00:20;;;;;;;51.20;16.05;;;;;;;1.07;100.00;99331.78;5022216;28;20017;-67
2022/01/16 00:05:23;;;;;;;40.10;14.10;;;;;;;1.12;100.00;99342.28;5012794;28;20075;-67
2022/01/16 00:07:49;;;;;;;36.40;13.50;;;;;;;1.01;100.00;99351.50;5013110;28;20049;-67
2022/01/16 00:10:17;;;;;;;48.03;16.17;;;;;;;1.14;100.00;99358.78;5016409;28;20388;-67
2022/01/16 00:12:47;;;;;;;39.40;15.23;;;;;;;1.25;100.00;99362.56;5016206;28;20057;-67
2022/01/16 00:15:13;;;;;;;54.20;16.75;;;;;;;1.25;100.00;99349.59;5018834;28;20021;-67
2022/01/16 00:17:51;;;;;;;38.20;13.73;;;;;;;1.24;100.00;99353.03;5015737;28;20038;-67
2022/01/16 00:20:16;;;;;;;46.63;16.02;;;;;;;1.25;100.00;99360.84;5019621;28;20038;-67
2022/01/16 00:22:44;;;;;;;36.55;13.75;;;;;;;1.26;100.00;99361.69;5015358;28;20029;-67
2022/01/16 00:25:10;;;;;;;38.67;12.80;;;;;;;1.23;100.00;99359.06;5012754;28;20034;-67
2022/01/16 00:27:35;;;;;;;41.10;14.50;;;;;;;1.21;100.00;99360.72;5018863;28;20038;-67
2022/01/16 00:30:03;;;;;;;49.45;16.02;;;;;;;1.26;100.00;99343.56;5016982;28;20053;-67
2022/01/16 00:32:28;;;;;;;40.08;14.65;;;;;;;1.23;100.00;99338.31;5015038;28;20025;-67
2022/01/16 00:34:54;;;;;;;38.40;14.77;;;;;;;1.28;99.99;99336.72;5009872;28;20050;-67
2022/01/16 00:37:19;;;;;;;47.33;17.65;;;;;;;1.28;99.70;99347.97;5018126;28;20018;-67
2022/01/16 00:39:44;;;;;;;39.35;14.43;;;;;;;1.17;100.00;99345.91;5023428;28;20344;-67
2022/01/16 00:42:10;;;;;;;41.53;15.05;;;;;;;1.23;99.97;99327.94;5024276;28;20025;-67
2022/01/16 00:44:36;;;;;;;39.50;13.20;;;;;;;1.27;99.84;99337.56;5017875;28;20022;-67
2022/01/16 00:47:05;;;;;;;39.00;13.77;;;;;;;1.20;100.00;99338.22;5016496;28;20040;-67
2022/01/16 00:49:34;;;;;;;43.67;16.50;;;;;;;1.25;99.91;99336.63;5014633;28;20084;-67
2022/01/16 00:52:00;;;;;;;42.40;13.57;;;;;;;1.20;100.00;99323.53;5013863;28;20371;-67
2022/01/16 00:54:25;;;;;;;41.60;16.60;;;;;;;1.22;99.84;99363.34;5019315;28;20085;-67
2022/01/16 00:56:50;;;;;;;51.38;16.83;;;;;;;1.18;99.90;99340.78;5018563;28;20084;-67
2022/01/16 00:59:16;;;;;;;42.47;14.57;;;;;;;1.26;99.90;99361.69;5015468;28;20017;-67
2022/01/16 01:01:41;;;;;;;42.70;17.67;;;;;;;1.23;99.93;99353.88;5015607;28;20060;-67
2022/01/16 01:04:06;;;;;;;41.45;16.02;;;;;;;1.19;99.75;99349.41;5020486;28;20026;-67
2022/01/16 01:06:32;;;;;;;46.55;14.80;;;;;;;1.14;100.00;99346.69;5011600;28;20030;-67
2022/01/16 01:08:57;;;;;;;59.17;18.17;;;;;;;1.14;100.00;99338.91;5017195;28;20022;-67
2022/01/16 01:11:27;;;;;;;49.17;18.08;;;;;;;1.19;100.00;99345.13;5013360;28;20225;-67
2022/01/16 01:16:38;;;;;;;48.47;17.27;;;;;;;1.25;100.00;99357.38;5008838;28;20117;-67
2022/01/16 01:19:04;;;;;;;56.97;17.70;;;;;;;1.23;100.00;99348.69;5015000;28;20187;-67
2022/01/16 01:21:30;;;;;;;44.35;15.48;;;;;;;1.25;100.00;99344.41;5011072;28;20025;-67
2022/01/16 01:23:58;;;;;;;44.90;18.27;;;;;;;1.30;99.61;99288.38;5018245;28;20014;-67
2022/01/16 01:26:29;;;;;;;47.75;16.27;;;;;;;1.26;99.14;99281.31;5007563;28;20018;-67
2022/01/16 01:28:55;;;;;;;43.97;17.95;;;;;;;1.12;98.87;99261.94;5014698;28;20076;-67
2022/01/16 01:31:20;;;;;;;45.17;18.23;;;;;;;1.17;99.13;99270.72;5008024;28;20026;-67
2022/01/16 01:33:45;;;;;;;44.38;18.15;;;;;;;1.20;98.72;99271.66;5016542;28;20026;-67
2022/01/16 01:36:11;;;;;;;52.20;18.45;;;;;;;1.11;98.56;99275.75;5014182;28;20026;-67
2022/01/16 01:38:36;;;;;;;42.67;17.45;;;;;;;1.14;99.03;99307.78;5015338;28;20077;-67
2022/01/16 01:41:02;;;;;;;50.03;18.73;;;;;;;1.15;98.71;99308.69;5015046;28;20021;-67
2022/01/16 01:51:27;;;;;;;50.08;18.13;;;;;;;1.17;98.05;99348.50;5011932;28;20033;-67
2022/01/16 01:53:55;;;;;;;51.15;19.17;;;;;;;1.17;98.02;99346.78;5047107;28;20274;-67
2022/01/16 01:56:23;;;;;;;53.58;18.23;;;;;;;1.13;98.19;99347.53;5017088;28;20408;-67
2022/01/16 01:58:49;;;;;;;49.65;17.63;;;;;;;1.15;97.98;99332.91;5007170;28;20049;-67
2022/01/16 02:01:16;;;;;;;54.35;19.63;;;;;;;1.18;97.69;99334.69;5012866;28;20014;-67
2022/01/16 02:06:27;;;;;;;43.75;17.95;;;;;;;1.02;97.24;99351.53;5012978;28;20032;-67
2022/01/16 02:08:56;;;;;;;44.60;18.25;;;;;;;1.08;97.16;99363.78;5014522;28;20042;-67
2022/01/16 02:11:24;;;;;;;52.60;18.70;;;;;;;1.04;96.94;99356.75;5007919;28;20037;-67
2022/01/16 02:30:39;;;;;;;48.92;19.20;;;;;;;0.88;97.84;99385.66;5012565;28;20041;-67
2022/01/16 02:33:00;;;;;;;54.35;19.73;;;;;;;0.83;97.90;99377.75;5010524;28;20057;-67
2022/01/16 02:35:26;;;;;;;50.53;18.83;;;;;;;0.78;97.57;99378.41;5014828;28;20022;-67
2022/01/16 02:37:51;;;;;;;56.53;19.55;;;;;;;0.70;97.51;99383.38;5015039;28;20199;-67
2022/01/16 02:40:21;;;;;;;62.22;19.40;;;;;;;0.77;97.19;99387.91;5016459;28;20038;-67
2022/01/16 02:42:50;;;;;;;50.58;17.85;;;;;;;0.74;97.21;99379.16;5016361;28;20068;-67
2022/01/16 02:45:28;;;;;;;47.17;17.48;;;;;;;0.66;97.22;99385.81;5011165;28;20089;-67
2022/01/16 02:47:54;;;;;;;53.05;18.42;;;;;;;0.50;98.11;99355.94;5015040;28;20049;-67
2022/01/16 02:50:20;;;;;;;52.65;20.25;;;;;;;0.46;98.57;99353.22;5009892;28;20339;-67
2022/01/16 02:52:46;;;;;;;42.65;17.52;;;;;;;0.45;98.72;99348.88;5011637;28;20026;-67
2022/01/16 02:55:13;;;;;;;49.08;19.20;;;;;;;0.45;98.49;99335.94;5015569;28;20025;-67
2022/01/16 02:57:39;;;;;;;50.92;20.52;;;;;;;0.49;97.81;99338.66;5010258;28;20049;-67
2022/01/16 03:00:05;;;;;;;48.17;18.48;;;;;;;0.40;97.42;99338.38;5014218;28;20194;-67
2022/01/16 03:02:30;;;;;;;47.00;17.38;;;;;;;0.46;97.51;99333.38;5007512;28;20089;-67
2022/01/16 03:04:56;;;;;;;49.65;18.80;;;;;;;0.40;97.59;99327.13;5011326;28;20253;-67
2022/01/16 03:07:22;;;;;;;54.53;19.70;;;;;;;0.30;97.62;99331.16;5017319;28;20022;-67
2022/01/16 03:12:53;;;;;;;57.78;20.50;;;;;;;0.19;98.29;99342.00;5020942;28;20221;-67
2022/01/16 03:15:20;;;;;;;40.05;16.92;;;;;;;0.12;98.77;99327.09;5013212;28;20037;-67
2022/01/16 03:23:12;;;;;;;43.58;16.60;;;;;;;0.12;98.89;99327.09;5009409;28;20068;-67
2022/01/16 03:25:38;;;;;;;44.20;17.73;;;;;;;0.13;98.99;99315.91;5017800;28;20046;-67
2022/01/16 03:28:04;;;;;;;48.53;19.02;;;;;;;0.27;99.18;99314.63;5018480;28;20038;-67
2022/01/16 03:30:29;;;;;;;58.38;20.85;;;;;;;0.10;99.29;99310.63;5017644;28;20026;-67
2022/01/16 03:32:54;;;;;;;59.75;20.60;;;;;;;0.07;99.32;99320.88;5014725;28;20271;-67
2022/01/16 03:35:20;;;;;;;48.47;19.55;;;;;;;0.08;99.70;99320.03;5023694;28;20217;-67
2022/01/16 03:37:45;;;;;;;45.67;18.70;;;;;;;0.04;100.00;99322.53;5017129;28;20018;-67
2022/01/16 03:40:12;;;;;;;53.75;20.83;;;;;;;0.04;99.89;99319.94;5015572;28;20097;-67
2022/01/16 03:42:38;;;;;;;45.17;19.00;;;;;;;0.06;100.00;99306.19;5019706;28;20148;-67
2022/01/16 03:45:05;;;;;;;41.67;16.52;;;;;;;0.03;100.00;99313.88;5016629;28;20029;-67
2022/01/16 03:47:31;;;;;;;50.72;19.15;;;;;;;0.04;100.00;99322.53;5013669;28;20337;-67
2022/01/16 03:49:57;;;;;;;51.38;20.27;;;;;;;-0.08;100.00;99317.00;5023458;28;20032;-67
2022/01/16 03:52:22;;;;;;;54.45;19.92;;;;;;;-0.05;100.00;99323.97;5025548;28;20022;-67
2022/01/16 03:54:48;;;;;;;44.55;17.48;;;;;;;0.01;100.00;99327.59;5022417;28;20090;-67
2022/01/16 03:57:13;;;;;;;49.05;19.05;;;;;;;0.07;100.00;99333.81;5016713;28;20045;-67
2022/01/16 03:59:39;;;;;;;51.28;18.50;;;;;;;0.09;100.00;99320.09;5017710;28;20238;-67
2022/01/16 04:02:04;;;;;;;43.50;17.20;;;;;;;0.12;100.00;99320.19;5012373;28;20321;-67
2022/01/16 04:04:30;;;;;;;43.85;16.27;;;;;;;0.10;100.00;99329.66;5013570;28;20220;-67
2022/01/16 04:06:56;;;;;;;44.72;17.73;;;;;;;0.16;100.00;99341.91;5013518;28;20033;-67
2022/01/16 04:09:22;;;;;;;51.95;17.40;;;;;;;0.09;100.00;99335.63;5012722;28;20026;-67
2022/01/16 04:11:53;;;;;;;37.38;15.32;;;;;;;0.03;100.00;99331.13;5020358;28;20026;-67
2022/01/16 04:17:08;;;;;;;46.10;17.98;;;;;;;0.18;100.00;99340.25;5002192;28;20033;-67
2022/01/16 04:19:35;;;;;;;40.58;14.30;;;;;;;0.20;100.00;99334.28;5015054;28;20068;-67
2022/01/16 04:22:00;;;;;;;53.80;17.35;;;;;;;0.06;100.00;99337.25;5018908;28;20057;-67
2022/01/16 04:24:26;;;;;;;47.03;17.00;;;;;;;-0.04;100.00;99343.81;5014191;28;21443;-67
2022/01/16 04:26:51;;;;;;;43.08;16.90;;;;;;;0.03;100.00;99338.91;5012901;28;20235;-67
2022/01/16 04:29:16;;;;;;;52.72;18.92;;;;;;;0.08;100.00;99345.94;5018161;28;20029;-67
2022/01/16 04:31:42;;;;;;;42.75;17.15;;;;;;;0.00;100.00;99341.38;5011640;28;20068;-67
2022/01/16 04:34:07;;;;;;;54.13;18.48;;;;;;;0.09;100.00;99335.63;5021293;28;20025;-67
2022/01/16 04:36:33;;;;;;;51.60;17.67;;;;;;;0.10;100.00;99326.16;5012602;28;20314;-67
2022/01/16 04:38:58;;;;;;;52.13;21.52;;;;;;;0.03;100.00;99325.97;5016440;28;20092;-67
2022/01/16 04:44:08;;;;;;;52.92;17.63;;;;;;;0.08;100.00;99322.63;5014128;28;20068;-67
2022/01/16 04:46:34;;;;;;;47.72;19.10;;;;;;;0.18;100.00;99329.91;5013300;28;20325;-67
2022/01/16 04:49:02;;;;;;;46.45;15.55;;;;;;;0.20;100.00;99355.00;5014232;28;20040;-67
2022/01/16 04:51:28;;;;;;;40.55;15.95;;;;;;;0.23;100.00;99357.69;5013817;28;20026;-67
2022/01/16 04:53:54;;;;;;;45.40;17.67;;;;;;;0.27;100.00;99350.88;5017464;28;20026;-67
2022/01/16 04:56:19;;;;;;;55.72;19.08;;;;;;;0.24;100.00;99362.03;5014093;28;20021;-67
2022/01/16 04:58:46;;;;;;;55.35;19.33;;;;;;;0.26;100.00;99373.31;5015107;28;20022;-67
2022/01/16 05:01:11;;;;;;;41.40;18.48;;;;;;;0.20;100.00;99375.69;5014791;28;20029;-67
2022/01/16 05:03:38;;;;;;;46.65;17.48;;;;;;;0.23;100.00;99374.91;5022726;28;20028;-67
2022/01/16 05:06:05;;;;;;;48.50;17.88;;;;;;;0.19;99.96;99367.88;5011440;28;20025;-67
2022/01/16 05:08:30;;;;;;;61.90;21.27;;;;;;;0.09;100.00;99365.81;5014503;28;20026;-67
2022/01/16 05:10:57;;;;;;;51.08;18.42;;;;;;;0.12;100.00;99363.34;5017828;28;20036;-67
2022/01/16 05:18:49;;;;;;;53.25;18.27;;;;;;;0.10;100.00;99377.94;5011444;28;20209;-67
2022/01/16 05:21:14;;;;;;;50.00;19.63;;;;;;;0.20;100.00;99386.06;5017255;28;20041;-67
2022/01/16 05:23:43;;;;;;;55.28;20.83;;;;;;;0.24;100.00;99371.47;5012860;28;20026;-67
2022/01/16 05:26:10;;;;;;;50.83;20.35;;;;;;;0.19;100.00;99367.88;5010507;28;20026;-67
2022/01/16 05:28:36;;;;;;;53.97;21.48;;;;;;;0.16;100.00;99373.84;5008330;28;20026;-67
2022/01/16 05:31:01;;;;;;;42.40;19.20;;;;;;;0.04;100.00;99383.78;5020827;28;20128;-67
2022/01/16 05:33:27;;;;;;;55.90;22.38;;;;;;;0.13;100.00;99378.91;5011469;28;20037;-67
2022/01/16 05:35:52;;;;;;;78.03;23.10;;;;;;;0.10;100.00;99401.22;5011929;28;20209;-67
2022/01/16 05:38:18;;;;;;;50.55;21.08;;;;;;;0.08;100.00;99410.63;5016438;28;20021;-67
2022/01/16 05:40:44;;;;;;;64.38;20.55;;;;;;;0.14;100.00;99411.72;5014188;28;20088;-67
2022/01/16 05:43:10;;;;;;;61.20;20.00;;;;;;;0.10;100.00;99424.50;5020022;28;20018;-67
2022/01/16 05:45:36;;;;;;;52.53;20.52;;;;;;;0.06;100.00;99417.47;5010895;28;20033;-67
2022/01/16 05:48:03;;;;;;;56.67;22.38;;;;;;;0.11;100.00;99405.56;5012645;28;20018;-67
2022/01/16 05:50:28;;;;;;;47.78;19.02;;;;;;;0.13;100.00;99414.25;5016174;28;20022;-67
2022/01/16 05:52:53;;;;;;;53.10;19.42;;;;;;;0.10;100.00;99412.47;5016217;28;20021;-67
2022/01/16 05:55:20;;;;;;;59.13;21.30;;;;;;;0.08;100.00;99416.69;5013954;28;20022;-67
2022/01/16 05:57:46;;;;;;;54.17;22.23;;;;;;;0.12;100.00;99412.50;5015449;28;20053;-67
2022/01/16 06:00:14;;;;;;;69.57;23.45;;;;;;;0.11;100.00;99426.25;5018200;28;20230;-67
2022/01/16 06:02:40;;;;;;;53.05;20.17;;;;;;;0.15;100.00;99429.00;5010377;28;20032;-67
2022/01/16 06:05:07;;;;;;;53.80;20.13;;;;;;;0.17;100.00;99431.66;5011975;28;20030;-67
2022/01/16 06:07:32;;;;;;;58.90;20.08;;;;;;;0.15;100.00;99422.97;5014625;28;20018;-67
2022/01/16 06:09:58;;;;;;;43.30;16.33;;;;;;;0.24;100.00;99418.06;5016685;28;20061;-67
2022/01/16 06:12:24;;;;;;;56.97;20.17;;;;;;;0.26;100.00;99416.44;5014929;28;20019;-67
2022/01/16 06:14:50;;;;;;;64.68;25.33;;;;;;;0.28;100.00;99418.22;5015146;28;20026;-67
2022/01/16 06:17:16;;;;;;;51.70;19.30;;;;;;;0.27;100.00;99402.66;5008261;28;20245;-67
2022/01/16 06:19:41;;;;;;;61.65;22.17;;;;;;;0.18;100.00;99407.53;5015800;28;20404;-67
2022/01/16 06:22:07;;;;;;;48.42;18.67;;;;;;;0.19;100.00;99409.28;5006782;28;20064;-67
2022/01/16 06:24:32;;;;;;;49.72;19.58;;;;;;;0.14;100.00;99421.19;5012700;28;20085;-67
2022/01/16 06:26:57;;;;;;;52.50;20.13;;;;;;;0.24;100.00;99402.53;5010654;28;20045;-67
2022/01/16 06:29:23;;;;;;;57.70;21.50;;;;;;;0.24;100.00;99428.44;5014296;28;20348;-67
2022/01/16 06:31:49;;;;;;;55.97;19.55;;;;;;;0.27;100.00;99428.53;5011186;28;20022;-67
2022/01/16 06:34:14;;;;;;;44.53;18.77;;;;;;;0.29;100.00;99432.06;5012932;28;20029;-67
2022/01/16 06:36:40;;;;;;;57.40;21.40;;;;;;;0.24;100.00;99441.38;5013298;28;20022;-67
2022/01/16 06:39:08;;;;;;;54.17;20.02;;;;;;;0.27;100.00;99438.88;5014693;28;20025;-67
2022/01/16 06:41:34;;;;;;;56.53;20.50;;;;;;;0.32;100.00;99432.16;5021456;28;20088;-67
2022/01/16 06:44:00;;;;;;;65.25;24.23;;;;;;;0.39;100.00;99429.84;5016344;28;20321;-67
2022/01/16 06:46:26;;;;;;;70.78;26.63;;;;;;;0.28;100.00;99445.84;5010969;28;20023;-67
2022/01/16 06:48:52;;;;;;;61.25;25.80;;;;;;;0.30;100.00;99459.72;5008029;28;20023;-67
2022/01/16 06:51:19;;;;;;;64.53;22.17;;;;;;;0.30;100.00;99472.66;5008261;28;20038;-67
2022/01/16 06:53:49;;;;;;;67.40;26.77;;;;;;;0.29;100.00;99465.72;5020120;28;20026;-67
2022/01/16 06:56:16;;;;;;;79.53;26.52;;;;;;;0.33;100.00;99475.34;5021101;28;20292;-67
2022/01/16 06:58:42;;;;;;;70.43;26.08;;;;;;;0.29;100.00;99476.06;5012595;28;20073;-67
2022/01/16 07:01:09;;;;;;;90.55;30.33;;;;;;;0.35;100.00;99489.22;5018262;28;20026;-67
2022/01/16 07:03:34;;;;;;;86.72;27.13;;;;;;;0.30;100.00;99495.94;5022294;28;20022;-67
2022/01/16 07:06:00;;;;;;;75.35;23.27;;;;;;;0.36;100.00;99507.41;5014463;28;20026;-67
2022/01/16 07:08:26;;;;;;;73.10;26.30;;;;;;;0.36;100.00;99496.16;5022279;28;20030;-67
2022/01/16 07:10:57;;;;;;;68.28;25.45;;;;;;;0.38;100.00;99499.69;5025141;28;20085;-67
2022/01/16 07:13:26;;;;;;;66.18;26.73;;;;;;;0.34;100.00;99503.03;5016955;28;20085;-67
2022/01/16 07:15:51;;;;;;;58.97;24.90;;;;;;;0.37;100.00;99505.69;5020602;28;20014;-67
2022/01/16 07:18:17;;;;;;;66.18;25.23;;;;;;;0.37;100.00;99503.97;5013153;28;20045;-67
2022/01/16 07:20:44;;;;;;;77.18;24.98;;;;;;;0.41;100.00;99515.34;5013419;28;20026;-67
2022/01/16 07:23:09;;;;;;;78.72;27.83;;;;;;;0.42;100.00;99522.28;5014833;28;20029;-67
2022/01/16 07:25:35;;;;;;;85.97;29.10;;;;;;;0.41;100.00;99512.75;5014493;28;20026;-67
2022/01/16 07:28:01;;;;;;;60.20;25.00;;;;;;;0.55;100.00;99508.91;5013894;28;20037;-67
2022/01/16 07:30:26;;;;;;;84.50;28.88;;;;;;;0.42;100.00;99532.63;5015660;28;20037;-67
2022/01/16 07:32:51;;;;;;;65.82;25.23;;;;;;;0.46;100.00;99524.13;5018323;28;20060;-67
2022/01/16 07:35:17;;;;;;;58.13;22.80;;;;;;;0.54;100.00;99514.94;5015076;28;20025;-67
2022/01/16 07:37:42;;;;;;;81.15;25.13;;;;;;;0.46;100.00;99522.44;5018908;28;20029;-67
2022/01/16 07:40:10;;;;;;;70.95;24.17;;;;;;;0.50;100.00;99526.03;5012490;28;20089;-67
2022/01/16 07:42:36;;;;;;;86.10;29.25;;;;;;;0.45;100.00;99548.28;5014446;28;20248;-67
2022/01/16 07:45:01;;;;;;;91.40;28.27;;;;;;;0.57;100.00;99548.69;5016606;28;20029;-67
2022/01/16 07:47:27;;;;;;;73.68;23.45;;;;;;;0.65;100.00;99547.25;5016910;28;20021;-67
2022/01/16 07:49:52;;;;;;;89.85;28.90;;;;;;;0.64;100.00;99550.66;5012357;28;20321;-67
2022/01/16 07:52:17;;;;;;;90.35;29.40;;;;;;;0.61;100.00;99566.09;5017291;28;20060;-67
2022/01/16 07:54:43;;;;;;;67.53;24.27;;;;;;;0.63;100.00;99544.59;5021215;28;20025;-67
2022/01/16 07:57:08;;;;;;;82.85;25.38;;;;;;;0.78;100.00;99555.47;5018257;28;20014;-67
2022/01/16 07:59:34;;;;;;;77.60;26.92;;;;;;;0.72;100.00;99554.38;5015828;28;20021;-67
2022/01/16 08:01:59;;;;;;;70.05;26.80;;;;;;;0.68;100.00;99562.88;5016683;28;20029;-67
2022/01/16 08:04:25;;;;;;;88.65;26.42;;;;;;;0.74;100.00;99552.72;5008152;28;20102;-67
2022/01/16 08:06:50;;;;;;;97.40;27.63;;;;;;;0.66;100.00;99557.66;5011509;28;20057;-66
2022/01/16 08:09:15;;;;;;;75.30;25.67;;;;;;;0.72;100.00;99554.38;5019395;28;20033;-66
2022/01/16 08:11:41;;;;;;;77.85;26.30;;;;;;;0.70;100.00;99543.09;5015239;28;20026;-66
2022/01/16 08:14:06;;;;;;;76.35;26.25;;;;;;;0.84;100.00;99547.91;5014143;28;20029;-66
2022/01/16 08:16:32;;;;;;;77.93;24.95;;;;;;;0.79;100.00;99536.50;5021902;28;21114;-66
2022/01/16 08:18:57;;;;;;;60.78;23.05;;;;;;;0.76;100.00;99548.50;5013898;28;20029;-66
2022/01/16 08:21:22;;;;;;;75.72;27.50;;;;;;;0.74;100.00;99547.56;5009573;28;20025;-66
2022/01/16 08:23:48;;;;;;;54.28;21.33;;;;;;;0.81;100.00;99544.31;5013756;28;20036;-66
2022/01/16 08:26:13;;;;;;;76.50;27.13;;;;;;;0.85;100.00;99548.81;5019126;28;20018;-67
2022/01/16 08:28:39;;;;;;;68.95;23.38;;;;;;;0.83;100.00;99547.88;5016239;28;20219;-66
2022/01/16 08:31:04;;;;;;;61.42;20.60;;;;;;;0.87;100.00;99539.34;5017726;28;20018;-67
2022/01/16 08:33:29;;;;;;;81.57;25.92;;;;;;;0.87;100.00;99554.91;5018662;28;20075;-66
2022/01/16 08:35:55;;;;;;;70.07;22.77;;;;;;;0.91;100.00;99564.53;5017704;28;20085;-66
2022/01/16 08:38:26;;;;;;;75.93;24.42;;;;;;;0.95;100.00;99572.47;5016365;28;20028;-66
2022/01/16 08:40:51;;;;;;;73.88;25.00;;;;;;;0.94;100.00;99572.41;5014691;28;20254;-66
2022/01/16 08:43:17;;;;;;;76.32;23.98;;;;;;;0.99;100.00;99581.22;5013130;28;20061;-66
2022/01/16 08:45:42;;;;;;;60.55;21.10;;;;;;;0.98;100.00;99582.94;5015934;28;20025;-66
2022/01/16 08:48:08;;;;;;;83.32;25.63;;;;;;;0.96;100.00;99588.91;5011853;28;20125;-66
2022/01/16 08:50:35;;;;;;;63.65;22.55;;;;;;;0.99;100.00;99586.41;5016923;28;20029;-66
2022/01/16 08:53:01;;;;;;;61.10;22.17;;;;;;;1.00;100.00;99608.91;5019253;28;20276;-66
2022/01/16 08:55:27;;;;;;;72.38;22.83;;;;;;;1.01;100.00;99600.31;5019629;28;20029;-66
2022/01/16 08:57:53;;;;;;;66.15;21.15;;;;;;;1.13;100.00;99604.19;5017671;28;20122;-66
2022/01/16 09:00:19;;;;;;;59.47;19.90;;;;;;;1.05;100.00;99612.53;5021810;28;20056;-66
2022/01/16 09:02:44;;;;;;;73.93;22.10;;;;;;;1.06;100.00;99611.69;5022962;28;20025;-66
2022/01/16 09:05:10;;;;;;;71.47;22.85;;;;;;;1.00;100.00;99619.25;5019203;28;20030;-66
2022/01/16 09:07:35;;;;;;;76.80;21.38;;;;;;;1.02;100.00;99626.28;5021174;28;20089;-66
2022/01/16 09:10:01;;;;;;;58.33;19.63;;;;;;;1.10;100.00;99626.50;5018015;28;20022;-66
2022/01/16 09:12:29;;;;;;;67.10;21.85;;;;;;;1.25;100.00;99627.03;5017500;28;20121;-66
2022/01/16 09:14:56;;;;;;;71.47;22.80;;;;;;;1.25;100.00;99634.81;5018186;28;20032;-66
2022/01/16 09:17:22;;;;;;;70.00;23.42;;;;;;;1.22;100.00;99632.13;5018176;28;20029;-66
2022/01/16 09:19:47;;;;;;;72.65;22.75;;;;;;;1.32;100.00;99639.38;5020898;28;20256;-66
2022/01/16 09:22:13;;;;;;;88.93;26.17;;;;;;;1.31;100.00;99642.78;5018348;28;20021;-66
2022/01/16 09:24:38;;;;;;;73.63;21.10;;;;;;;1.24;100.00;99643.44;5020790;28;20021;-66
2022/01/16 09:27:04;;;;;;;70.43;21.90;;;;;;;1.38;100.00;99634.38;5015541;28;20042;-66
2022/01/16 09:29:29;;;;;;;55.28;20.80;;;;;;;1.38;100.00;99635.28;5016083;28;20105;-66
2022/01/16 09:31:55;;;;;;;81.88;23.40;;;;;;;1.44;100.00;99651.03;5014085;28;20044;-66
2022/01/16 09:34:20;;;;;;;78.85;26.45;;;;;;;1.42;100.00;99649.19;5015294;28;20026;-66
2022/01/16 09:36:46;;;;;;;72.90;21.48;;;;;;;1.39;100.00;99656.91;5017365;28;20339;-66
2022/01/16 09:39:11;;;;;;;67.55;20.98;;;;;;;1.40;100.00;99658.66;5016951;28;20329;-66
2022/01/16 09:41:37;;;;;;;60.28;19.75;;;;;;;1.41;100.00;99653.53;5020071;28;20089;-66
2022/01/16 09:44:03;;;;;;;82.47;22.65;;;;;;;1.40;100.00;99663.84;5017316;28;20053;-67
2022/01/16 09:46:29;;;;;;;75.40;23.10;;;;;;;1.40;100.00;99658.66;5010457;28;20322;-67
2022/01/16 09:48:54;;;;;;;78.70;23.27;;;;;;;1.37;100.00;99663.75;5009070;28;20072;-67
2022/01/16 09:51:20;;;;;;;83.25;23.77;;;;;;;1.38;100.00;99687.16;5012906;28;20072;-67
2022/01/16 09:53:45;;;;;;;75.75;23.65;;;;;;;1.44;100.00;99671.78;5016184;28;20057;-67
2022/01/16 09:56:13;;;;;;;74.60;22.80;;;;;;;1.52;100.00;99677.22;5015232;28;20037;-67
2022/01/16 09:58:39;;;;;;;64.40;20.63;;;;;;;1.54;100.00;99683.34;5013797;28;20017;-67
2022/01/16 10:01:05;;;;;;;69.40;20.38;;;;;;;1.60;100.00;99688.72;5009621;28;20045;-67
2022/01/16 10:03:39;;;;;;;71.95;22.65;;;;;;;1.55;100.00;99679.94;5011989;28;20033;-67
2022/01/16 10:06:13;;;;;;;77.85;23.75;;;;;;;1.61;100.00;99685.28;5010973;28;20026;-67
2022/01/16 10:08:41;;;;;;;71.28;20.85;;;;;;;1.50;100.00;99692.75;5019347;28;20017;-67
2022/01/16 10:11:19;;;;;;;63.58;21.85;;;;;;;1.54;100.00;99698.91;5006964;28;20230;-67
2022/01/16 10:13:57;;;;;;;90.03;28.70;;;;;;;1.46;100.00;99697.78;5008879;28;20105;-67
2022/01/16 10:16:35;;;;;;;90.47;26.15;;;;;;;1.48;100.00;99693.50;5011523;28;20310;-67
2022/01/16 10:19:01;;;;;;;71.85;21.15;;;;;;;1.59;100.00;99694.75;5017304;28;20018;-67
2022/01/16 10:21:38;;;;;;;91.00;22.52;;;;;;;1.50;100.00;99697.03;5019822;28;20026;-67
2022/01/16 10:24:21;;;;;;;68.07;21.75;;;;;;;1.55;100.00;99705.88;5006922;28;20022;-67
2022/01/16 10:26:49;;;;;;;58.42;20.88;;;;;;;1.53;100.00;99691.94;5010329;28;20026;-67
2022/01/16 10:29:20;;;;;;;76.20;22.48;;;;;;;1.58;100.00;99691.25;5014483;28;20202;-67
2022/01/16 10:31:46;;;;;;;69.57;23.27;;;;;;;1.59;100.00;99689.56;5013349;28;20112;-67
2022/01/16 10:34:31;;;;;;;75.20;25.25;;;;;;;1.58;100.00;99691.25;5017495;28;20337;-67
2022/01/16 10:36:58;;;;;;;73.25;22.92;;;;;;;1.66;100.00;99699.31;5017443;28;20029;-67
2022/01/16 10:39:23;;;;;;;58.45;21.15;;;;;;;1.59;100.00;99692.16;5005904;28;20056;-67
2022/01/16 10:42:15;;;;;;;68.72;21.05;;;;;;;1.66;100.00;99691.53;5012307;28;20041;-67
2022/01/16 10:44:41;;;;;;;67.18;23.58;;;;;;;1.78;100.00;99686.72;5015116;28;20367;-67
2022/01/16 10:47:26;;;;;;;63.92;21.05;;;;;;;1.75;100.00;99686.63;5011855;28;20021;-66
2022/01/16 10:50:14;;;;;;;66.18;20.23;;;;;;;1.79;100.00;99688.47;5010015;28;20038;-66
2022/01/16 10:52:55;;;;;;;63.30;19.13;;;;;;;1.91;100.00;99673.28;5013365;28;20069;-67
2022/01/16 10:55:24;;;;;;;67.65;21.60;;;;;;;1.87;100.00;99689.63;5009222;28;20038;-67
2022/01/16 10:57:58;;;;;;;75.75;22.90;;;;;;;1.83;100.00;99698.13;5013840;28;20022;-67
2022/01/16 11:00:24;;;;;;;75.65;25.00;;;;;;;1.90;100.00;99689.72;5014002;28;20022;-67
2022/01/16 11:02:51;;;;;;;68.38;22.58;;;;;;;2.04;100.00;99693.59;5017689;28;20022;-67
2022/01/16 11:05:24;;;;;;;78.95;23.50;;;;;;;2.01;100.00;99696.09;5006390;28;20022;-67
2022/01/16 11:08:02;;;;;;;74.07;23.58;;;;;;;1.98;100.00;99691.72;5017239;28;20029;-67
2022/01/16 11:10:31;;;;;;;72.40;22.83;;;;;;;1.93;100.00;99684.63;5019875;28;20018;-67
2022/01/16 11:12:59;;;;;;;88.75;25.10;;;;;;;2.09;100.00;99692.03;5016351;28;20029;-67
2022/01/16 11:15:25;;;;;;;96.65;25.35;;;;;;;2.03;100.00;99686.66;5009397;28;20040;-66
2022/01/16 11:17:52;;;;;;;76.95;24.63;;;;;;;1.97;100.00;99686.47;5023532;28;20018;-66
2022/01/16 11:20:19;;;;;;;87.35;26.30;;;;;;;2.00;100.00;99677.03;5020729;28;20197;-67
2022/01/16 11:23:33;;;;;;;87.15;25.55;;;;;;;1.97;100.00;99678.69;5008854;28;20021;-67
2022/01/16 11:25:36;;;;;;;98.57;28.75;;;;;;;2.32;100.00;99688.41;5017076;28;20044;-67
2022/01/16 11:28:13;;;;;;;97.60;27.48;;;;;;;1.96;100.00;99692.47;5023190;28;20338;-67
2022/01/16 11:30:52;;;;;;;159.35;29.75;;;;;;;1.95;100.00;99690.72;5021089;28;20024;-66
2022/01/16 11:33:18;;;;;;;75.80;22.75;;;;;;;1.93;100.00;99695.00;5017190;28;20033;-66
2022/01/16 11:35:49;;;;;;;65.60;22.33;;;;;;;2.05;100.00;99700.56;5017326;28;20039;-66
2022/01/16 11:38:18;;;;;;;67.03;22.15;;;;;;;2.01;100.00;99702.19;5016174;28;20082;-66
2022/01/16 11:40:48;;;;;;;90.38;24.73;;;;;;;2.06;100.00;99697.16;5015416;28;20055;-66
2022/01/16 11:43:13;;;;;;;87.10;23.60;;;;;;;2.17;100.00;99693.16;5016048;28;20081;-66
2022/01/16 11:45:52;;;;;;;75.70;24.50;;;;;;;2.27;100.00;99702.13;5018590;28;20376;-66
2022/01/16 11:48:47;;;;;;;104.82;23.85;;;;;;;2.13;100.00;99693.91;5010021;28;20444;-66
2022/01/16 11:51:31;;;;;;;91.35;24.95;;;;;;;2.02;99.96;99695.25;5014055;28;20038;-66
2022/01/16 11:54:11;;;;;;;80.18;24.05;;;;;;;2.05;100.00;99690.16;5016058;28;20085;-66
2022/01/16 11:59:28;;;;;;;77.03;23.40;;;;;;;2.01;100.00;99699.59;5012895;28;20210;-66
2022/01/16 12:01:58;;;;;;;89.70;25.73;;;;;;;2.00;100.00;99691.75;5011277;28;20318;-66
2022/01/16 12:04:29;;;;;;;64.43;22.10;;;;;;;2.04;100.00;99688.41;5014834;28;20017;-66
2022/01/16 12:07:13;;;;;;;77.55;21.40;;;;;;;2.08;100.00;99691.16;5018870;28;20216;-66
2022/01/16 12:12:12;;;;;;;88.20;24.95;;;;;;;2.19;100.00;99694.94;5017251;28;20036;-66
2022/01/16 12:14:51;;;;;;;75.60;21.03;;;;;;;2.12;100.00;99700.78;5016387;28;20137;-66
2022/01/16 12:17:28;;;;;;;82.22;22.80;;;;;;;2.08;100.00;99692.84;5009212;28;20241;-66